createdAt,value
2018-07-03T00:00:57.182Z,46.58
2018-07-03T00:02:02.444Z,47.11
2018-07-03T00:03:07.378Z,46.94
2018-07-03T00:04:14.063Z,46.79
2018-07-03T00:05:18.849Z,46.61
2018-07-03T00:06:23.368Z,47.07
2018-07-03T00:07:28.662Z,47.05
2018-07-03T00:08:37.815Z,47.01
2018-07-03T00:09:44.718Z,46.96
2018-07-03T00:10:52.331Z,46.80
2018-07-03T00:11:57.033Z,46.85
2018-07-03T00:13:02.012Z,46.07
2018-07-03T00:14:07.370Z,46.09
2018-07-03T00:15:12.003Z,46.13
2018-07-03T00:17:25.791Z,46.23
2018-07-03T00:18:31.704Z,46.21
2018-07-03T00:19:36.204Z,46.71
2018-07-03T00:20:40.834Z,46.54
2018-07-03T00:21:45.454Z,46.72
2018-07-03T00:22:50.064Z,46.66
2018-07-03T00:23:54.698Z,46.71
2018-07-03T00:24:59.842Z,46.68
2018-07-03T00:26:04.441Z,46.72
2018-07-03T00:27:09.307Z,47.31
2018-07-03T00:28:13.891Z,47.43
2018-07-03T00:29:18.529Z,47.23
2018-07-03T00:30:23.113Z,47.23
2018-07-03T00:31:28.425Z,47.17
2018-07-03T00:32:33.041Z,46.94
2018-07-03T00:33:38.631Z,47.00
2018-07-03T00:34:43.343Z,46.80
2018-07-03T00:35:49.042Z,46.81
2018-07-03T00:36:54.061Z,46.89
2018-07-03T00:37:59.305Z,47.30
2018-07-03T00:39:04.131Z,47.52
2018-07-03T00:40:08.821Z,47.60
2018-07-03T00:41:13.488Z,47.18
2018-07-03T00:42:19.077Z,47.29
2018-07-03T00:43:25.224Z,47.75
2018-07-03T00:44:31.257Z,47.76
2018-07-03T00:45:36.557Z,47.94
2018-07-03T00:46:41.094Z,48.22
2018-07-03T00:47:45.628Z,48.05
2018-07-03T00:48:52.367Z,47.49
2018-07-03T00:49:57.050Z,47.60
2018-07-03T00:51:02.062Z,47.45
2018-07-03T00:52:06.740Z,48.10
2018-07-03T00:53:12.602Z,47.31
2018-07-03T00:54:17.958Z,47.55
2018-07-03T00:55:23.081Z,47.95
2018-07-03T00:56:27.967Z,47.33
2018-07-03T00:57:33.283Z,47.91
2018-07-03T00:58:37.914Z,47.94
2018-07-03T00:59:47.716Z,47.65
2018-07-03T01:00:52.323Z,47.49
2018-07-03T01:01:56.938Z,47.71
2018-07-03T01:03:03.042Z,47.94
2018-07-03T01:04:08.131Z,48.09
2018-07-03T01:05:12.636Z,47.52
2018-07-03T01:06:17.142Z,48.07
2018-07-03T01:07:21.640Z,47.60
2018-07-03T01:08:26.138Z,48.05
2018-07-03T01:09:31.213Z,47.71
2018-07-03T01:10:37.561Z,47.71
2018-07-03T01:11:42.061Z,48.31
2018-07-03T01:12:53.355Z,48.36
2018-07-03T01:14:10.331Z,48.31
2018-07-03T01:15:19.891Z,48.06
2018-07-03T01:16:41.115Z,48.27
2018-07-03T01:17:45.825Z,48.66
2018-07-03T01:18:53.056Z,49.00
2018-07-03T01:19:58.128Z,48.45
2018-07-03T01:21:03.719Z,48.96
2018-07-03T01:22:08.430Z,49.24
2018-07-03T01:23:14.386Z,49.35
2018-07-03T01:24:19.763Z,48.79
2018-07-03T01:25:24.763Z,48.71
2018-07-03T01:26:29.335Z,49.25
2018-07-03T01:27:33.890Z,49.70
2018-07-03T01:28:50.830Z,50.06
2018-07-03T01:29:55.591Z,50.45
2018-07-03T01:31:00.160Z,49.97
2018-07-03T01:32:04.671Z,49.63
2018-07-03T01:33:09.246Z,50.18
2018-07-03T01:34:14.407Z,50.22
2018-07-03T01:35:19.274Z,49.34
2018-07-03T01:36:23.791Z,49.76
2018-07-03T01:37:28.297Z,49.84
2018-07-03T01:38:32.862Z,50.25
2018-07-03T01:39:38.401Z,50.09
2018-07-03T01:40:45.021Z,50.53
2018-07-03T01:41:49.592Z,51.14
2018-07-03T01:42:54.161Z,50.13
2018-07-03T01:43:59.038Z,50.79
2018-07-03T01:45:03.613Z,51.12
2018-07-03T01:46:08.153Z,50.52
2018-07-03T01:47:12.677Z,50.70
2018-07-03T01:48:17.237Z,50.63
2018-07-03T01:49:21.717Z,50.77
2018-07-03T01:50:26.288Z,50.59
2018-07-03T01:51:30.806Z,50.32
2018-07-03T01:52:36.410Z,50.40
2018-07-03T01:53:40.953Z,50.38
2018-07-03T01:54:45.547Z,50.38
2018-07-03T01:55:50.074Z,50.90
2018-07-03T01:56:54.624Z,51.57
2018-07-03T01:57:59.127Z,51.77
2018-07-03T01:59:04.146Z,52.29
2018-07-03T02:00:08.723Z,52.23
2018-07-03T02:01:13.257Z,51.65
2018-07-03T02:02:17.850Z,51.50
2018-07-03T02:03:22.464Z,51.49
2018-07-03T02:04:27.121Z,51.62
2018-07-03T02:05:32.202Z,51.99
2018-07-03T02:06:36.813Z,52.13
2018-07-03T02:07:41.459Z,52.32
2018-07-03T02:08:46.039Z,52.53
2018-07-03T02:09:50.576Z,51.81
2018-07-03T02:10:55.289Z,52.31
2018-07-03T02:12:01.153Z,51.60
2018-07-03T02:13:05.727Z,52.29
2018-07-03T02:14:10.245Z,52.46
2018-07-03T02:15:14.811Z,51.63
2018-07-03T02:16:19.486Z,51.49
2018-07-03T02:17:24.404Z,52.50
2018-07-03T02:18:30.451Z,52.37
2018-07-03T02:19:35.098Z,51.88
2018-07-03T02:20:41.714Z,52.17
2018-07-03T02:21:46.475Z,53.05
2018-07-03T02:22:51.088Z,52.59
2018-07-03T02:23:55.703Z,51.89
2018-07-03T02:25:00.577Z,52.47
2018-07-03T02:26:05.160Z,51.75
2018-07-03T02:27:09.713Z,51.99
2018-07-03T02:28:14.359Z,52.09
2018-07-03T02:29:19.020Z,52.37
2018-07-03T02:30:23.733Z,52.27
2018-07-03T02:31:28.356Z,51.70
2018-07-03T02:32:33.028Z,51.85
2018-07-03T02:33:37.618Z,51.77
2018-07-03T02:34:42.485Z,52.30
2018-07-03T02:35:47.179Z,51.69
2018-07-03T02:36:52.485Z,52.58
2018-07-03T02:37:57.325Z,51.91
2018-07-03T02:39:02.066Z,53.26
2018-07-03T02:40:07.785Z,52.87
2018-07-03T02:41:12.467Z,52.44
2018-07-03T02:42:17.189Z,52.35
2018-07-03T02:43:22.339Z,53.17
2018-07-03T02:44:27.071Z,53.16
2018-07-03T02:45:31.767Z,53.56
2018-07-03T02:46:36.469Z,53.70
2018-07-03T02:47:41.163Z,53.92
2018-07-03T02:48:45.827Z,54.65
2018-07-03T02:49:51.617Z,54.22
2018-07-03T02:50:56.108Z,54.16
2018-07-03T02:52:00.697Z,54.36
2018-07-03T02:53:05.212Z,54.98
2018-07-03T02:54:09.828Z,54.80
2018-07-03T02:55:15.066Z,55.01
2018-07-03T02:56:20.025Z,54.89
2018-07-03T02:57:26.351Z,54.64
2018-07-03T02:58:30.921Z,54.02
2018-07-03T02:59:35.452Z,54.72
2018-07-03T03:00:40.076Z,54.18
2018-07-03T03:01:44.678Z,54.67
2018-07-03T03:02:49.799Z,53.90
2018-07-03T03:03:54.430Z,54.30
2018-07-03T03:04:58.963Z,54.10
2018-07-03T03:06:03.572Z,55.80
2018-07-03T03:07:08.488Z,56.11
2018-07-03T03:08:13.181Z,55.55
2018-07-03T03:09:18.253Z,55.98
2018-07-03T03:10:22.834Z,55.14
2018-07-03T03:11:27.380Z,55.30
2018-07-03T03:12:32.075Z,55.28
2018-07-03T03:13:36.878Z,56.01
2018-07-03T03:14:41.608Z,55.63
2018-07-03T03:15:46.670Z,55.32
2018-07-03T03:16:51.343Z,55.04
2018-07-03T03:17:56.292Z,54.96
2018-07-03T03:19:01.038Z,54.58
2018-07-03T03:20:05.776Z,55.29
2018-07-03T03:21:10.885Z,55.18
2018-07-03T03:22:15.538Z,55.21
2018-07-03T03:23:20.108Z,55.27
2018-07-03T03:24:24.743Z,55.41
2018-07-03T03:25:29.822Z,55.70
2018-07-03T03:26:34.415Z,55.03
2018-07-03T03:27:39.665Z,55.03
2018-07-03T03:28:44.387Z,55.66
2018-07-03T03:29:49.063Z,55.76
2018-07-03T03:30:53.701Z,55.07
2018-07-03T03:31:58.409Z,54.72
2018-07-03T03:33:03.020Z,55.06
2018-07-03T03:34:09.057Z,54.97
2018-07-03T03:35:13.693Z,55.15
2018-07-03T03:36:18.217Z,54.82
2018-07-03T03:37:22.700Z,55.44
2018-07-03T03:38:27.315Z,55.50
2018-07-03T03:39:31.900Z,56.03
2018-07-03T03:40:36.880Z,56.05
2018-07-03T03:41:41.961Z,55.36
2018-07-03T03:42:46.488Z,55.85
2018-07-03T03:43:51.308Z,55.75
2018-07-03T03:44:55.796Z,55.74
2018-07-03T03:46:00.342Z,54.95
2018-07-03T03:47:05.391Z,54.85
2018-07-03T03:48:09.958Z,54.71
2018-07-03T03:49:14.511Z,54.62
2018-07-03T03:50:19.282Z,54.87
2018-07-03T03:51:24.645Z,55.12
2018-07-03T03:52:29.240Z,54.52
2018-07-03T03:53:34.304Z,54.47
2018-07-03T03:54:38.910Z,54.23
2018-07-03T03:55:43.418Z,55.16
2018-07-03T03:56:47.960Z,54.63
2018-07-03T03:57:52.524Z,55.17
2018-07-03T03:58:57.088Z,55.47
2018-07-03T04:00:02.209Z,55.52
2018-07-03T04:01:06.808Z,56.23
2018-07-03T04:02:11.474Z,55.91
2018-07-03T04:03:16.108Z,56.14
2018-07-03T04:04:20.688Z,56.43
2018-07-03T04:05:25.306Z,56.72
2018-07-03T04:06:30.298Z,57.06
2018-07-03T04:07:34.909Z,56.76
2018-07-03T04:08:40.376Z,56.47
2018-07-03T04:09:45.058Z,57.17
2018-07-03T04:10:49.816Z,56.11
2018-07-03T04:11:54.901Z,56.69
2018-07-03T04:13:00.144Z,55.99
2018-07-03T04:14:05.497Z,56.33
2018-07-03T04:15:11.353Z,56.00
2018-07-03T04:16:16.655Z,56.50
2018-07-03T04:17:21.376Z,56.29
2018-07-03T04:18:30.536Z,56.61
2018-07-03T04:19:35.530Z,55.98
2018-07-03T04:20:40.260Z,55.16
2018-07-03T04:21:44.943Z,55.92
2018-07-03T04:22:49.600Z,55.06
2018-07-03T04:23:54.348Z,55.22
2018-07-03T04:24:59.175Z,55.54
2018-07-03T04:26:04.418Z,54.96
2018-07-03T04:27:09.054Z,55.40
2018-07-03T04:28:13.612Z,54.78
2018-07-03T04:29:18.910Z,55.40
2018-07-03T04:30:24.795Z,54.80
2018-07-03T04:31:30.372Z,55.74
2018-07-03T04:32:35.377Z,56.28
2018-07-03T04:33:40.010Z,55.38
2018-07-03T04:34:44.730Z,55.73
2018-07-03T04:35:49.422Z,55.91
2018-07-03T04:36:54.118Z,55.81
2018-07-03T04:37:58.801Z,55.40
2018-07-03T04:39:04.356Z,56.10
2018-07-03T04:40:09.027Z,55.59
2018-07-03T04:41:13.682Z,56.40
2018-07-03T04:42:18.345Z,55.97
2018-07-03T04:43:24.864Z,55.50
2018-07-03T04:44:29.489Z,56.41
2018-07-03T04:45:34.061Z,56.72
2018-07-03T04:46:38.590Z,56.58
2018-07-03T04:47:43.452Z,56.97
2018-07-03T04:48:47.990Z,57.15
2018-07-03T04:49:52.568Z,57.17
2018-07-03T04:50:58.292Z,57.30
2018-07-03T04:52:02.849Z,56.49
2018-07-03T04:53:07.898Z,56.88
2018-07-03T04:54:12.502Z,57.02
2018-07-03T04:55:17.065Z,56.56
2018-07-03T04:56:21.651Z,57.09
2018-07-03T04:57:26.742Z,57.15
2018-07-03T04:58:31.328Z,56.98
2018-07-03T04:59:35.885Z,57.14
2018-07-03T05:00:40.755Z,57.29
2018-07-03T05:01:45.304Z,57.04
2018-07-03T05:02:49.940Z,57.48
2018-07-03T05:03:55.375Z,57.27
2018-07-03T05:05:00.018Z,57.33
2018-07-03T05:06:04.707Z,56.98
2018-07-03T05:07:09.412Z,56.77
2018-07-03T05:08:14.124Z,57.39
2018-07-03T05:09:19.101Z,57.77
2018-07-03T05:10:23.716Z,57.13
2018-07-03T05:11:28.336Z,57.73
2018-07-03T05:12:33.180Z,57.38
2018-07-03T05:13:37.924Z,57.69
2018-07-03T05:14:42.531Z,57.85
2018-07-03T05:15:47.479Z,57.15
2018-07-03T05:16:59.029Z,57.36
2018-07-03T05:18:03.640Z,57.39
2018-07-03T05:19:08.272Z,57.10
2018-07-03T05:20:12.812Z,56.80
2018-07-03T05:21:17.423Z,56.54
2018-07-03T05:22:22.386Z,57.35
2018-07-03T05:23:27.022Z,57.19
2018-07-03T05:24:32.407Z,56.56
2018-07-03T05:25:37.015Z,56.32
2018-07-03T05:26:42.408Z,56.41
2018-07-03T05:27:47.397Z,55.62
2018-07-03T05:28:54.331Z,55.56
2018-07-03T05:29:58.991Z,56.22
2018-07-03T05:31:03.614Z,56.49
2018-07-03T05:32:08.439Z,56.30
2018-07-03T05:33:12.998Z,56.09
2018-07-03T05:34:17.517Z,56.60
2018-07-03T05:35:22.448Z,56.38
2018-07-03T05:36:27.090Z,55.72
2018-07-03T05:37:31.756Z,56.70
2018-07-03T05:38:36.282Z,56.26
2018-07-03T05:39:40.913Z,55.60
2018-07-03T05:40:47.366Z,55.75
2018-07-03T05:41:52.415Z,56.06
2018-07-03T05:42:57.059Z,55.35
2018-07-03T05:44:01.910Z,55.73
2018-07-03T05:45:06.594Z,55.86
2018-07-03T05:46:11.241Z,56.34
2018-07-03T05:47:17.817Z,55.80
2018-07-03T05:48:22.961Z,55.66
2018-07-03T05:49:27.635Z,55.54
2018-07-03T05:50:32.684Z,55.84
2018-07-03T05:51:37.472Z,55.25
2018-07-03T05:52:42.171Z,55.06
2018-07-03T05:53:46.849Z,55.00
2018-07-03T05:54:51.986Z,55.50
2018-07-03T05:55:57.320Z,55.55
2018-07-03T05:57:02.548Z,55.02
2018-07-03T05:58:07.662Z,55.40
2018-07-03T05:59:12.412Z,55.03
2018-07-03T06:00:17.189Z,54.67
2018-07-03T06:01:22.332Z,54.19
2018-07-03T06:02:27.014Z,54.58
2018-07-03T06:03:32.208Z,54.83
2018-07-03T06:04:37.851Z,54.05
2018-07-03T06:05:42.505Z,54.70
2018-07-03T06:06:47.347Z,54.26
2018-07-03T06:07:52.272Z,54.47
2018-07-03T06:08:57.019Z,53.75
2018-07-03T06:10:06.119Z,54.57
2018-07-03T06:11:10.982Z,54.25
2018-07-03T06:12:15.621Z,53.38
2018-07-03T06:13:21.250Z,53.78
2018-07-03T06:14:33.826Z,53.39
2018-07-03T06:15:39.589Z,53.36
2018-07-03T06:16:44.526Z,52.73
2018-07-03T06:17:49.258Z,52.27
2018-07-03T06:18:53.960Z,52.13
2018-07-03T06:19:58.551Z,51.68
2018-07-03T06:21:03.980Z,52.09
2018-07-03T06:22:08.891Z,51.45
2018-07-03T06:23:13.858Z,50.97
2018-07-03T06:24:19.178Z,51.10
2018-07-03T06:25:24.842Z,51.00
2018-07-03T06:26:29.866Z,50.63
2018-07-03T06:27:35.507Z,50.45
2018-07-03T06:28:40.422Z,50.64
2018-07-03T06:29:46.046Z,50.94
2018-07-03T06:30:50.846Z,50.11
2018-07-03T06:32:04.828Z,50.63
2018-07-03T06:33:23.274Z,49.81
2018-07-03T06:34:29.110Z,49.59
2018-07-03T06:35:33.893Z,49.05
2018-07-03T06:36:38.882Z,48.93
2018-07-03T06:37:43.611Z,48.58
2018-07-03T06:38:49.758Z,47.99
2018-07-03T06:39:55.237Z,48.44
2018-07-03T06:41:01.823Z,47.86
2018-07-03T06:42:06.877Z,47.74
2018-07-03T06:43:11.661Z,47.47
2018-07-03T06:44:16.405Z,47.23
2018-07-03T06:45:21.176Z,47.93
2018-07-03T06:46:26.401Z,47.61
2018-07-03T06:47:31.122Z,47.52
2018-07-03T06:48:35.849Z,47.46
2018-07-03T06:49:40.599Z,46.51
2018-07-03T06:50:45.233Z,45.66
2018-07-03T06:51:50.914Z,45.08
2018-07-03T06:52:56.718Z,44.24
2018-07-03T06:54:02.422Z,44.20
2018-07-03T06:55:07.248Z,43.72
2018-07-03T06:56:12.755Z,42.80
2018-07-03T06:57:17.810Z,42.10
2018-07-03T06:58:22.655Z,42.21
2018-07-03T06:59:29.462Z,41.76
2018-07-03T07:00:34.969Z,41.24
2018-07-03T07:01:39.641Z,41.60
2018-07-03T07:02:48.124Z,41.53
2018-07-03T07:03:53.012Z,41.26
2018-07-03T07:04:58.486Z,41.16
2018-07-03T07:06:06.567Z,41.14
2018-07-03T07:07:11.401Z,41.80
2018-07-03T07:08:16.724Z,41.61
2018-07-03T07:09:21.613Z,41.38
2018-07-03T07:10:26.254Z,41.30
2018-07-03T07:11:31.491Z,41.21
2018-07-03T07:13:54.955Z,41.00
2018-07-03T07:14:59.941Z,39.94
2018-07-03T07:16:04.799Z,40.82
2018-07-03T07:17:11.411Z,40.36
2018-07-03T07:18:19.915Z,39.35
2018-07-03T07:19:24.706Z,39.85
2018-07-03T07:20:29.516Z,39.27
2018-07-03T07:21:39.685Z,39.04
2018-07-03T07:22:44.696Z,38.22
2018-07-03T07:23:52.864Z,37.94
2018-07-03T07:24:58.902Z,36.77
2018-07-03T07:26:03.647Z,36.65
2018-07-03T07:27:08.746Z,36.69
2018-07-03T07:28:13.482Z,36.46
2018-07-03T07:29:18.245Z,35.83
2018-07-03T07:30:23.040Z,35.81
2018-07-03T07:32:48.067Z,35.25
2018-07-03T07:33:52.885Z,34.70
2018-07-03T07:34:58.237Z,34.63
2018-07-03T07:36:03.026Z,33.98
2018-07-03T07:37:07.890Z,33.83
2018-07-03T07:38:13.503Z,33.30
2018-07-03T07:39:18.861Z,32.72
2018-07-03T07:40:24.640Z,32.85
2018-07-03T07:41:29.663Z,32.06
2018-07-03T07:42:34.311Z,31.48
2018-07-03T07:43:39.817Z,30.97
2018-07-03T07:44:45.133Z,31.68
2018-07-03T07:45:50.490Z,30.56
2018-07-03T07:46:55.182Z,30.66
2018-07-03T07:48:00.000Z,30.86
2018-07-03T07:49:05.623Z,30.43
2018-07-03T07:50:11.124Z,30.21
2018-07-03T07:51:16.288Z,29.89
2018-07-03T07:52:21.218Z,29.81
2018-07-03T07:53:29.428Z,29.64
2018-07-03T07:54:34.173Z,29.54
2018-07-03T07:55:42.754Z,29.28
2018-07-03T07:56:50.125Z,29.47
2018-07-03T07:57:54.792Z,29.29
2018-07-03T07:58:59.517Z,29.12
2018-07-03T08:00:04.699Z,29.03
2018-07-03T08:01:09.831Z,28.91
2018-07-03T08:02:15.583Z,28.87
2018-07-03T08:03:21.083Z,28.81
2018-07-03T08:04:25.811Z,28.77
2018-07-03T08:05:30.546Z,28.77
2018-07-03T08:06:37.516Z,29.29
2018-07-03T08:07:43.281Z,28.79
2018-07-03T08:08:51.278Z,29.17
2018-07-03T08:09:56.436Z,28.36
2018-07-03T08:11:01.101Z,28.50
2018-07-03T08:12:05.803Z,28.24
2018-07-03T08:13:10.593Z,28.20
2018-07-03T08:14:26.636Z,28.27
2018-07-03T08:15:32.711Z,27.98
2018-07-03T08:16:37.495Z,28.24
2018-07-03T08:17:43.752Z,28.77
2018-07-03T08:18:51.493Z,28.72
2018-07-03T08:20:01.826Z,28.31
2018-07-03T08:21:06.802Z,28.64
2018-07-03T08:22:11.505Z,28.70
2018-07-03T08:23:16.451Z,28.07
2018-07-03T08:24:22.090Z,27.74
2018-07-03T08:25:27.014Z,28.22
2018-07-03T08:26:31.836Z,28.21
2018-07-03T08:27:37.030Z,28.01
2018-07-03T08:28:42.556Z,27.47
2018-07-03T08:29:47.572Z,27.28
2018-07-03T08:30:56.286Z,27.12
2018-07-03T08:32:03.875Z,27.17
2018-07-03T08:33:10.793Z,27.15
2018-07-03T08:34:20.052Z,27.26
2018-07-03T08:35:25.787Z,27.00
2018-07-03T08:36:31.789Z,26.88
2018-07-03T08:37:37.137Z,26.92
2018-07-03T08:38:42.087Z,26.92
2018-07-03T08:39:48.892Z,27.22
2018-07-03T08:40:54.162Z,27.07
2018-07-03T08:41:59.767Z,26.95
2018-07-03T08:43:04.777Z,26.87
2018-07-03T08:44:10.540Z,26.94
2018-07-03T08:45:28.014Z,27.02
2018-07-03T08:46:34.015Z,27.28
2018-07-03T08:47:40.576Z,27.22
2018-07-03T08:48:46.666Z,26.69
2018-07-03T08:49:52.598Z,27.14
2018-07-03T08:50:58.242Z,26.71
2018-07-03T08:52:07.845Z,26.86
2018-07-03T08:53:13.895Z,27.09
2018-07-03T08:54:24.075Z,26.69
2018-07-03T08:55:34.735Z,26.70
2018-07-03T08:56:40.092Z,26.12
2018-07-03T08:57:47.890Z,26.67
2018-07-03T09:00:28.226Z,26.60
2018-07-03T09:01:34.707Z,27.05
2018-07-03T09:02:40.378Z,27.00
2018-07-03T09:03:45.192Z,27.12
2018-07-03T09:04:50.685Z,26.94
2018-07-03T09:06:05.896Z,26.74
2018-07-03T09:07:15.719Z,26.94
2018-07-03T09:08:22.484Z,26.63
2018-07-03T09:09:43.732Z,26.75
2018-07-03T09:11:23.335Z,26.64
2018-07-03T09:12:32.674Z,26.65
2018-07-03T09:13:38.593Z,26.56
2018-07-03T09:14:44.564Z,26.43
2018-07-03T09:15:55.123Z,26.57
2018-07-03T09:17:06.996Z,26.72
2018-07-03T09:18:12.553Z,26.65
2018-07-03T09:19:18.269Z,26.36
2018-07-03T09:23:00.328Z,26.52
2018-07-03T09:24:12.445Z,25.89
2018-07-03T09:25:20.072Z,25.93
2018-07-03T09:26:25.207Z,26.22
2018-07-03T09:27:31.832Z,26.02
2018-07-03T09:28:37.749Z,26.06
2018-07-03T09:29:54.839Z,25.77
2018-07-03T09:31:01.864Z,25.81
2018-07-03T09:32:06.930Z,26.02
2018-07-03T09:33:17.053Z,26.06
2018-07-03T09:35:41.321Z,26.27
2018-07-03T09:39:12.927Z,26.18
2018-07-03T09:40:19.165Z,26.04
2018-07-03T09:42:42.744Z,26.07
2018-07-03T09:45:09.845Z,25.69
2018-07-03T09:46:33.951Z,25.22
2018-07-03T09:47:39.910Z,25.46
2018-07-03T09:48:48.752Z,25.12
2018-07-03T09:49:53.634Z,25.31
2018-07-03T09:51:06.661Z,25.36
2018-07-03T09:52:14.503Z,25.32
2018-07-03T09:53:22.883Z,25.61
2018-07-03T09:54:28.898Z,25.18
2018-07-03T09:55:36.274Z,24.91
2018-07-03T09:56:44.354Z,25.18
2018-07-03T09:57:52.776Z,25.25
2018-07-03T09:59:02.272Z,24.67
2018-07-03T10:00:10.618Z,24.77
2018-07-03T10:01:22.264Z,24.63
2018-07-03T10:02:32.191Z,24.55
2018-07-03T10:03:38.609Z,24.81
2018-07-03T10:04:48.413Z,23.88
2018-07-03T10:05:53.963Z,24.16
2018-07-03T10:06:58.858Z,23.93
2018-07-03T10:08:04.916Z,24.39
2018-07-03T10:09:11.147Z,24.23
2018-07-03T10:10:18.948Z,23.73
2018-07-03T10:11:26.238Z,24.23
2018-07-03T10:13:51.982Z,23.48
2018-07-03T10:14:57.494Z,23.73
2018-07-03T10:16:03.577Z,23.43
2018-07-03T10:17:18.888Z,23.58
2018-07-03T10:18:30.102Z,23.79
2018-07-03T10:19:40.172Z,23.52
2018-07-03T10:20:50.648Z,23.72
2018-07-03T10:22:01.746Z,23.87
2018-07-03T10:23:08.589Z,23.37
2018-07-03T10:24:19.098Z,22.91
2018-07-03T10:26:36.565Z,23.34
2018-07-03T10:27:42.329Z,23.50
2018-07-03T10:31:23.292Z,22.70
2018-07-03T10:32:38.764Z,22.45
2018-07-03T10:33:50.037Z,22.94
2018-07-03T10:34:55.279Z,22.44
2018-07-03T10:36:02.691Z,23.13
2018-07-03T10:37:10.362Z,23.28
2018-07-03T10:38:16.511Z,23.27
2018-07-03T10:39:23.775Z,23.37
2018-07-03T10:40:30.671Z,23.47
2018-07-03T10:41:38.761Z,23.15
2018-07-03T10:42:48.415Z,23.61
2018-07-03T10:43:55.117Z,23.37
2018-07-03T10:45:04.091Z,23.77
2018-07-03T10:46:15.518Z,23.79
2018-07-03T10:48:39.883Z,23.46
2018-07-03T10:49:53.792Z,22.60
2018-07-03T10:51:08.485Z,23.29
2018-07-03T10:53:54.096Z,22.73
2018-07-03T10:55:07.553Z,22.98
2018-07-03T10:56:24.001Z,23.51
2018-07-03T10:58:48.845Z,23.40
2018-07-03T10:59:58.234Z,23.75
2018-07-03T11:01:05.989Z,22.99
2018-07-03T11:02:24.400Z,23.26
2018-07-03T11:03:31.897Z,22.64
2018-07-03T11:04:39.349Z,22.94
2018-07-03T11:05:48.825Z,22.69
2018-07-03T11:07:04.382Z,22.76
2018-07-03T11:10:02.373Z,22.36
2018-07-03T11:11:11.039Z,22.59
2018-07-03T11:12:25.410Z,22.07
2018-07-03T11:13:37.292Z,22.17
2018-07-03T11:14:45.602Z,22.01
2018-07-03T11:20:56.867Z,22.18
2018-07-03T11:26:21.892Z,21.83
2018-07-03T11:27:29.443Z,22.27
2018-07-03T11:28:37.818Z,21.61
2018-07-03T11:29:46.376Z,21.58
2018-07-03T11:31:00.000Z,21.15
2018-07-03T11:34:53.398Z,20.67
2018-07-03T11:36:14.771Z,21.20
2018-07-03T11:38:42.658Z,20.67
2018-07-03T11:39:49.245Z,20.66
2018-07-03T11:40:57.446Z,20.56
2018-07-03T11:42:04.052Z,20.94
2018-07-03T11:43:09.865Z,20.78
2018-07-03T11:44:23.228Z,21.47
2018-07-03T11:45:33.732Z,20.96
2018-07-03T11:46:46.027Z,20.87
2018-07-03T11:47:55.159Z,20.87
2018-07-03T11:50:26.387Z,20.54
2018-07-03T11:51:35.392Z,20.44
2018-07-03T11:52:41.227Z,21.05
2018-07-03T11:53:47.271Z,20.89
2018-07-03T11:56:05.063Z,20.61
2018-07-03T11:57:11.542Z,20.54
2018-07-03T11:58:16.941Z,20.45
2018-07-03T11:59:23.666Z,20.82
2018-07-03T12:00:31.235Z,19.93
2018-07-03T12:01:40.052Z,20.54
2018-07-03T12:02:52.671Z,20.67
2018-07-03T12:04:00.145Z,20.11
2018-07-03T12:06:21.220Z,19.82
2018-07-03T12:07:26.049Z,20.48
2018-07-03T12:08:37.243Z,20.39
2018-07-03T12:09:44.073Z,20.28
2018-07-03T12:10:59.131Z,20.03
2018-07-03T12:12:06.706Z,19.89
2018-07-03T12:14:24.269Z,19.67
2018-07-03T12:15:35.746Z,19.50
2018-07-03T12:16:43.197Z,18.92
2018-07-03T12:17:50.005Z,18.71
2018-07-03T12:19:00.266Z,18.45
2018-07-03T12:25:05.937Z,18.51
2018-07-03T12:26:13.285Z,18.22
2018-07-03T12:27:20.343Z,18.45
2018-07-03T12:28:37.711Z,18.43
2018-07-03T12:29:45.657Z,18.51
2018-07-03T12:30:52.552Z,18.42
2018-07-03T12:32:05.410Z,18.44
2018-07-03T12:33:12.415Z,18.00
2018-07-03T12:34:27.434Z,17.85
2018-07-03T12:35:36.032Z,18.12
2018-07-03T12:36:46.567Z,17.59
2018-07-03T12:39:18.194Z,18.01
2018-07-03T12:40:28.282Z,18.10
2018-07-03T12:41:37.014Z,18.18
2018-07-03T12:42:51.735Z,18.14
2018-07-03T12:43:58.369Z,17.88
2018-07-03T12:45:04.972Z,17.51
2018-07-03T12:46:12.146Z,17.80
2018-07-03T12:47:19.551Z,17.81
2018-07-03T12:48:28.116Z,17.96
2018-07-03T12:55:04.217Z,17.86
2018-07-03T12:56:11.097Z,18.09
2018-07-03T12:57:21.625Z,18.34
2018-07-03T12:58:27.863Z,18.40
2018-07-03T12:59:34.759Z,18.00
2018-07-03T13:00:41.325Z,18.19
2018-07-03T13:01:46.415Z,18.00
2018-07-03T13:02:52.788Z,17.94
2018-07-03T13:03:59.761Z,18.05
2018-07-03T13:05:07.212Z,18.04
2018-07-03T13:06:13.404Z,18.08
2018-07-03T13:07:19.364Z,17.66
2018-07-03T13:08:25.785Z,17.83
2018-07-03T13:09:33.097Z,17.62
2018-07-03T13:10:38.840Z,17.44
2018-07-03T13:11:45.760Z,17.87
2018-07-03T13:12:51.819Z,17.94
2018-07-03T13:13:58.441Z,18.19
2018-07-03T13:15:03.800Z,18.41
2018-07-03T13:16:13.270Z,18.17
2018-07-03T13:17:18.727Z,18.14
2018-07-03T13:18:25.093Z,18.12
2018-07-03T13:19:30.485Z,17.81
2018-07-03T13:20:35.208Z,18.02
2018-07-03T13:21:40.052Z,17.53
2018-07-03T13:22:45.015Z,17.46
2018-07-03T13:23:53.434Z,17.35
2018-07-03T13:24:59.676Z,17.44
2018-07-03T13:26:06.123Z,17.56
2018-07-03T13:27:13.392Z,17.51
2018-07-03T13:28:19.302Z,17.27
2018-07-03T13:29:24.304Z,17.67
2018-07-03T13:30:29.031Z,17.61
2018-07-03T13:31:35.840Z,17.38
2018-07-03T13:32:42.354Z,17.41
2018-07-03T13:33:50.791Z,17.41
2018-07-03T13:34:55.514Z,17.72
2018-07-03T13:36:00.789Z,17.38
2018-07-03T13:37:09.566Z,17.76
2018-07-03T13:38:14.247Z,18.00
2018-07-03T13:39:19.788Z,17.89
2018-07-03T13:40:27.504Z,17.96
2018-07-03T13:41:36.762Z,17.63
2018-07-03T13:42:43.763Z,17.34
2018-07-03T13:43:49.803Z,17.52
2018-07-03T13:45:02.719Z,17.49
2018-07-03T13:46:10.402Z,17.08
2018-07-03T13:47:23.725Z,17.42
2018-07-03T13:48:33.489Z,17.62
2018-07-03T13:49:41.493Z,17.79
2018-07-03T13:50:57.022Z,17.67
2018-07-03T13:52:04.854Z,17.54
2018-07-03T13:55:01.839Z,18.20
2018-07-03T13:56:24.756Z,17.76
2018-07-03T13:57:41.425Z,18.11
2018-07-03T14:00:09.275Z,17.42
2018-07-03T14:01:20.886Z,17.67
2018-07-03T14:02:30.138Z,17.61
2018-07-03T14:04:03.527Z,17.51
2018-07-03T14:05:32.002Z,17.85
2018-07-03T21:47:17.503Z,38.54
2018-07-03T21:48:26.772Z,38.20
2018-07-03T21:49:37.664Z,38.45
2018-07-03T21:50:42.730Z,38.31
2018-07-03T21:51:49.592Z,38.56
2018-07-03T21:52:59.752Z,38.37
2018-07-03T21:54:11.116Z,38.40
2018-07-03T21:55:17.802Z,38.67
2018-07-03T21:56:24.754Z,39.21
2018-07-03T21:57:31.349Z,39.09
2018-07-03T21:58:36.124Z,39.29
2018-07-03T21:59:41.332Z,38.92
2018-07-03T22:00:46.764Z,39.33
2018-07-03T22:01:55.724Z,39.21
2018-07-03T22:03:00.437Z,39.38
2018-07-03T22:04:10.913Z,39.10
2018-07-03T22:05:15.931Z,39.28
2018-07-03T22:06:20.670Z,39.35
2018-07-03T22:07:25.693Z,39.04
2018-07-03T22:08:35.657Z,39.27
2018-07-03T22:09:41.028Z,100.00
2018-07-03T22:10:47.817Z,39.60
2018-07-03T22:11:57.713Z,39.25
2018-07-03T22:13:04.026Z,39.24
2018-07-03T22:15:29.523Z,39.33
2018-07-03T22:16:35.246Z,39.03
2018-07-03T22:17:49.776Z,39.20
2018-07-03T22:18:59.391Z,39.14
2018-07-03T22:20:06.377Z,38.96
2018-07-03T22:21:11.961Z,38.76
2018-07-03T22:23:40.724Z,38.97
2018-07-03T22:24:48.236Z,39.45
2018-07-03T22:25:53.862Z,39.57
2018-07-03T22:27:05.210Z,39.44
2018-07-03T22:28:12.249Z,39.24
2018-07-03T22:29:18.483Z,40.15
2018-07-03T22:30:23.360Z,40.22
2018-07-03T22:31:29.844Z,40.98
2018-07-03T22:32:34.540Z,41.86
2018-07-03T22:33:39.606Z,41.85
2018-07-03T22:34:44.892Z,42.63
2018-07-03T22:35:51.153Z,42.37
2018-07-03T22:36:56.674Z,42.61
2018-07-03T22:38:03.506Z,43.15
2018-07-03T22:39:09.913Z,43.22
2018-07-03T22:40:16.805Z,43.02
2018-07-03T22:41:23.947Z,43.09
2018-07-03T22:42:29.252Z,43.09
2018-07-03T22:43:34.823Z,43.24
2018-07-03T22:44:40.864Z,42.81
2018-07-03T22:45:46.426Z,100.00
2018-07-03T22:46:51.323Z,42.65
2018-07-03T22:47:56.050Z,43.03
2018-07-03T22:49:01.933Z,42.93
2018-07-03T22:50:09.654Z,100.00
2018-07-03T22:51:17.004Z,42.75
2018-07-03T22:52:25.648Z,43.07
2018-07-03T22:53:32.354Z,42.66
2018-07-03T22:54:38.444Z,42.95
2018-07-03T22:55:44.109Z,42.83
2018-07-03T22:56:56.608Z,43.19
2018-07-03T22:58:02.991Z,42.49
2018-07-03T22:59:08.961Z,42.49